createdAt,value
2023-02-19T00:01:36.838Z,13.80
2023-02-19T00:03:39.134Z,13.80
2023-02-19T00:05:40.796Z,13.80
2023-02-19T00:07:43.432Z,13.80
2023-02-19T00:09:45.117Z,13.80
2023-02-19T00:11:47.810Z,13.80
2023-02-19T00:13:51.325Z,13.80
2023-02-19T00:15:52.992Z,13.80
2023-02-19T00:17:54.699Z,13.80
2023-02-19T00:19:56.365Z,13.80
2023-02-19T00:21:57.988Z,13.80
2023-02-19T00:24:00.919Z,13.80
2023-02-19T00:26:17.207Z,13.70
2023-02-19T00:28:20.602Z,13.80
2023-02-19T00:30:22.361Z,13.70
2023-02-19T00:32:24.094Z,13.80
2023-02-19T00:34:25.773Z,13.80
2023-02-19T00:36:28.416Z,13.70
2023-02-19T00:38:30.234Z,13.70
2023-02-19T00:40:31.909Z,13.70
2023-02-19T00:42:33.523Z,13.70
2023-02-19T00:44:35.228Z,13.70
2023-02-19T00:46:41.419Z,13.70
2023-02-19T00:48:44.333Z,13.70
2023-02-19T00:50:46.014Z,13.70
2023-02-19T00:52:47.787Z,13.70
2023-02-19T00:54:50.258Z,13.70
2023-02-19T00:56:52.186Z,13.70
2023-02-19T00:58:53.955Z,13.70
2023-02-19T01:00:55.933Z,13.70
2023-02-19T01:02:57.529Z,13.70
2023-02-19T01:05:00.901Z,13.70
2023-02-19T01:07:02.529Z,13.70
2023-02-19T01:09:04.756Z,13.70
2023-02-19T01:11:08.145Z,13.60
2023-02-19T01:13:10.510Z,13.70
2023-02-19T01:15:12.224Z,13.60
2023-02-19T01:17:13.879Z,13.60
2023-02-19T01:19:15.686Z,13.60
2023-02-19T01:21:18.769Z,13.60
2023-02-19T01:23:21.221Z,13.60
2023-02-19T01:25:22.980Z,13.60
2023-02-19T01:27:24.576Z,13.60
2023-02-19T01:29:26.170Z,13.50
2023-02-19T01:31:28.352Z,13.50
2023-02-19T01:33:30.297Z,13.50
2023-02-19T01:35:32.465Z,13.50
2023-02-19T01:37:34.125Z,13.50
2023-02-19T01:39:35.968Z,13.50
2023-02-19T01:41:39.441Z,13.50
2023-02-19T01:43:55.596Z,13.50
2023-02-19T01:45:57.295Z,13.50
2023-02-19T01:48:17.474Z,13.50
2023-02-19T01:50:19.262Z,13.50
2023-02-19T01:52:32.583Z,13.50
2023-02-19T01:54:36.239Z,13.40
2023-02-19T01:56:39.413Z,13.40
2023-02-19T01:58:41.472Z,13.40
2023-02-19T02:00:43.291Z,13.40
2023-02-19T02:02:48.124Z,13.40
2023-02-19T02:04:49.787Z,13.40
2023-02-19T02:06:52.629Z,13.40
2023-02-19T02:09:14.728Z,13.40
2023-02-19T02:11:16.517Z,13.30
2023-02-19T02:13:18.506Z,13.30
2023-02-19T02:15:22.254Z,13.30
2023-02-19T02:17:23.853Z,13.30
2023-02-19T02:19:44.399Z,13.30
2023-02-19T02:22:04.477Z,13.30
2023-02-19T02:24:24.880Z,13.30
2023-02-19T02:26:32.336Z,13.30
2023-02-19T02:28:49.875Z,13.30
2023-02-19T02:30:55.600Z,13.30
2023-02-19T02:33:07.815Z,13.30
2023-02-19T02:35:11.055Z,13.30
2023-02-19T02:37:15.703Z,13.30
2023-02-19T02:39:19.156Z,13.30
2023-02-19T02:41:22.120Z,13.30
2023-02-19T02:43:24.026Z,13.30
2023-02-19T02:45:36.889Z,13.30
2023-02-19T02:47:47.127Z,13.20
2023-02-19T02:50:05.141Z,13.30
2023-02-19T02:52:27.747Z,13.30
2023-02-19T02:54:50.022Z,13.30
2023-02-19T02:56:53.893Z,13.30
2023-02-19T02:58:56.459Z,13.20
2023-02-19T03:01:19.904Z,13.30
2023-02-19T03:03:24.179Z,13.30
2023-02-19T03:05:46.253Z,13.30
2023-02-19T03:07:52.468Z,13.30
2023-02-19T03:09:56.529Z,13.30
2023-02-19T03:12:19.102Z,13.20
2023-02-19T03:14:41.305Z,13.20
2023-02-19T03:17:03.293Z,13.20
2023-02-19T03:19:20.403Z,13.20
2023-02-19T03:21:23.948Z,13.20
2023-02-19T03:23:47.632Z,13.20
2023-02-19T03:26:05.435Z,13.10
2023-02-19T03:28:19.501Z,13.10
2023-02-19T03:30:24.216Z,13.10
2023-02-19T03:32:55.073Z,13.10
2023-02-19T03:35:05.208Z,13.10
2023-02-19T03:37:18.864Z,13.10
2023-02-19T03:39:22.384Z,13.10
2023-02-19T03:41:42.235Z,13.00
2023-02-19T03:43:50.008Z,13.00
2023-02-19T03:45:52.158Z,13.00
2023-02-19T03:48:12.374Z,13.00
2023-02-19T03:50:43.616Z,13.00
2023-02-19T03:52:54.003Z,13.00
2023-02-19T03:55:01.745Z,13.00
2023-02-19T03:57:14.195Z,13.00
2023-02-19T03:59:21.431Z,13.00
2023-02-19T04:01:27.447Z,13.00
2023-02-19T04:03:33.943Z,13.00
2023-02-19T04:05:38.957Z,13.00
2023-02-19T04:07:43.485Z,13.00
2023-02-19T04:09:46.780Z,12.90
2023-02-19T04:11:52.677Z,12.90
2023-02-19T04:14:06.551Z,12.90
2023-02-19T04:16:10.006Z,12.90
2023-02-19T04:18:14.593Z,12.90
2023-02-19T04:20:16.570Z,12.90
2023-02-19T04:22:19.157Z,12.90
2023-02-19T04:24:29.357Z,12.80
2023-02-19T04:26:32.204Z,12.80
2023-02-19T04:28:34.363Z,12.80
2023-02-19T04:30:36.122Z,12.80
2023-02-19T04:32:37.849Z,12.80
2023-02-19T04:34:39.729Z,12.80
2023-02-19T04:36:41.394Z,12.80
2023-02-19T04:38:43.025Z,12.80
2023-02-19T04:40:44.644Z,12.80
2023-02-19T04:42:46.252Z,12.70
2023-02-19T04:44:47.902Z,12.70
2023-02-19T04:46:49.546Z,12.70
2023-02-19T04:48:51.228Z,12.70
2023-02-19T04:50:52.857Z,12.70
2023-02-19T04:52:54.494Z,12.70
2023-02-19T04:54:56.149Z,12.70
2023-02-19T04:56:57.776Z,12.70
2023-02-19T04:58:59.482Z,12.70
2023-02-19T05:01:01.146Z,12.70
2023-02-19T05:03:02.822Z,12.70
2023-02-19T05:05:04.561Z,12.70
2023-02-19T05:07:06.212Z,12.70
2023-02-19T05:09:07.901Z,12.80
2023-02-19T05:11:11.494Z,12.70
2023-02-19T05:13:13.275Z,12.70
2023-02-19T05:15:15.003Z,12.70
2023-02-19T05:17:16.619Z,12.70
2023-02-19T05:19:18.316Z,12.70
2023-02-19T05:21:20.020Z,12.70
2023-02-19T05:23:21.740Z,12.70
2023-02-19T05:25:23.421Z,12.70
2023-02-19T05:27:25.026Z,12.70
2023-02-19T05:29:26.895Z,12.70
2023-02-19T05:31:28.941Z,12.70
2023-02-19T05:33:30.694Z,12.70
2023-02-19T05:35:32.373Z,12.70
2023-02-19T05:37:34.003Z,12.70
2023-02-19T05:39:35.650Z,12.70
2023-02-19T05:41:37.391Z,12.70
2023-02-19T05:43:39.652Z,12.70
2023-02-19T05:45:41.439Z,12.70
2023-02-19T05:47:43.048Z,12.70
2023-02-19T05:49:44.650Z,12.70
2023-02-19T05:51:46.301Z,12.80
2023-02-19T05:53:48.340Z,12.80
2023-02-19T05:55:49.944Z,12.80
2023-02-19T05:57:51.570Z,12.80
2023-02-19T05:59:53.151Z,12.80
2023-02-19T06:01:55.014Z,12.80
2023-02-19T06:03:57.601Z,12.70
2023-02-19T06:05:59.497Z,12.70
2023-02-19T06:08:01.136Z,12.80
2023-02-19T06:10:02.749Z,12.70
2023-02-19T06:12:04.549Z,12.70
2023-02-19T06:14:06.584Z,12.80
2023-02-19T06:16:09.830Z,12.80
2023-02-19T06:18:11.472Z,12.70
2023-02-19T06:20:13.146Z,12.70
2023-02-19T06:22:15.415Z,12.70
2023-02-19T06:24:17.089Z,12.70
2023-02-19T06:26:21.400Z,12.70
2023-02-19T06:28:23.075Z,12.70
2023-02-19T06:30:24.796Z,12.70
2023-02-19T06:32:26.599Z,12.70
2023-02-19T06:34:28.378Z,12.70
2023-02-19T06:36:31.181Z,12.70
2023-02-19T06:38:32.889Z,12.70
2023-02-19T06:40:34.508Z,12.70
2023-02-19T06:42:36.215Z,12.70
2023-02-19T06:44:37.916Z,12.70
2023-02-19T06:46:39.628Z,12.70
2023-02-19T06:48:42.267Z,12.70
2023-02-19T06:50:43.950Z,12.70
2023-02-19T06:52:45.561Z,12.70
2023-02-19T06:54:47.225Z,12.70
2023-02-19T06:56:48.934Z,12.70
2023-02-19T06:58:50.734Z,12.70
2023-02-19T07:00:52.880Z,12.70
2023-02-19T07:02:56.534Z,12.70
2023-02-19T07:04:58.221Z,12.70
2023-02-19T07:07:00.181Z,12.70
2023-02-19T07:09:02.850Z,12.70
2023-02-19T07:11:04.642Z,12.70
2023-02-19T07:13:06.423Z,12.70
2023-02-19T07:15:08.303Z,12.70
2023-02-19T07:17:09.975Z,12.60
2023-02-19T07:19:12.142Z,12.70
2023-02-19T07:21:14.645Z,12.70
2023-02-19T07:23:16.327Z,12.70
2023-02-19T07:25:18.005Z,12.70
2023-02-19T07:27:19.686Z,12.70
2023-02-19T07:29:21.284Z,12.70
2023-02-19T07:31:23.757Z,12.70
2023-02-19T07:33:25.426Z,12.70
2023-02-19T07:35:27.519Z,12.70
2023-02-19T07:37:29.286Z,12.70
2023-02-19T07:39:30.940Z,12.70
2023-02-19T07:41:32.694Z,12.70
2023-02-19T07:43:35.271Z,12.70
2023-02-19T07:45:36.896Z,12.70
2023-02-19T07:47:38.543Z,12.70
2023-02-19T07:49:40.221Z,12.70
2023-02-19T07:51:41.920Z,12.80
2023-02-19T07:53:43.601Z,12.80
2023-02-19T07:55:45.262Z,12.80
2023-02-19T07:57:47.007Z,12.80
2023-02-19T07:59:48.647Z,12.80
2023-02-19T08:02:08.972Z,12.80
2023-02-19T08:04:11.184Z,12.90
2023-02-19T08:06:13.021Z,12.80
2023-02-19T08:08:15.324Z,12.90
2023-02-19T08:10:35.631Z,12.90
2023-02-19T08:12:55.830Z,12.90
2023-02-19T08:14:57.831Z,12.90
2023-02-19T08:16:59.611Z,12.90
2023-02-19T08:19:01.348Z,12.90
2023-02-19T08:21:03.440Z,12.90
2023-02-19T08:23:05.483Z,12.80
2023-02-19T08:25:07.379Z,12.80
2023-02-19T08:27:09.012Z,12.80
2023-02-19T08:29:10.701Z,12.80
2023-02-19T08:31:12.977Z,12.90
2023-02-19T08:33:16.551Z,12.80
2023-02-19T08:35:18.332Z,12.90
2023-02-19T08:37:20.025Z,12.90
2023-02-19T08:39:21.786Z,12.90
2023-02-19T08:41:23.458Z,12.90
2023-02-19T08:43:25.214Z,12.90
2023-02-19T08:45:26.929Z,12.90
2023-02-19T08:47:28.666Z,12.90
2023-02-19T08:49:30.495Z,12.90
2023-02-19T08:51:32.240Z,12.90
2023-02-19T08:53:34.578Z,13.00
2023-02-19T08:55:37.311Z,13.00
2023-02-19T08:57:38.974Z,12.90
2023-02-19T08:59:40.820Z,13.00
2023-02-19T09:01:42.645Z,13.00
2023-02-19T09:03:44.398Z,13.00
2023-02-19T09:05:46.811Z,13.00
2023-02-19T09:07:48.510Z,13.00
2023-02-19T09:09:50.176Z,13.00
2023-02-19T09:11:51.816Z,13.00
2023-02-19T09:13:55.416Z,13.00
2023-02-19T09:15:57.370Z,13.10
2023-02-19T09:17:59.663Z,13.10
2023-02-19T09:20:01.370Z,13.10
2023-02-19T09:22:03.598Z,13.10
2023-02-19T09:24:05.490Z,13.10
2023-02-19T09:26:09.995Z,13.10
2023-02-19T09:28:11.861Z,13.20
2023-02-19T09:30:13.602Z,13.20
2023-02-19T09:32:17.109Z,13.20
2023-02-19T09:34:19.751Z,13.20
2023-02-19T09:36:21.390Z,13.30
2023-02-19T09:38:23.034Z,13.30
2023-02-19T09:40:24.734Z,13.30
2023-02-19T09:42:29.789Z,13.30
2023-02-19T09:44:36.020Z,13.30
2023-02-19T09:46:45.791Z,13.30
2023-02-19T09:48:47.499Z,13.30
2023-02-19T09:50:49.708Z,13.40
2023-02-19T09:52:53.310Z,13.40
2023-02-19T09:54:57.736Z,13.30
2023-02-19T09:57:01.041Z,13.40
2023-02-19T09:59:03.023Z,13.40
2023-02-19T10:01:05.530Z,13.40
2023-02-19T10:03:12.358Z,13.40
2023-02-19T10:05:15.522Z,13.40
2023-02-19T10:07:19.125Z,13.40
2023-02-19T10:09:26.821Z,13.50
2023-02-19T10:11:28.785Z,13.50
2023-02-19T10:13:32.047Z,13.50
2023-02-19T10:15:37.495Z,13.50
2023-02-19T10:17:39.206Z,13.50
2023-02-19T10:19:40.920Z,13.50
2023-02-19T10:21:42.928Z,13.50
2023-02-19T10:23:44.706Z,13.50
2023-02-19T10:25:54.143Z,13.50
2023-02-19T10:27:57.932Z,13.50
2023-02-19T10:30:00.478Z,13.60
2023-02-19T10:32:18.733Z,13.60
2023-02-19T10:34:23.608Z,13.60
2023-02-19T10:36:25.787Z,13.60
2023-02-19T10:38:32.749Z,13.60
2023-02-19T10:40:34.555Z,13.60
2023-02-19T10:42:44.486Z,13.70
2023-02-19T10:44:47.836Z,13.70
2023-02-19T10:46:51.042Z,13.70
2023-02-19T10:48:52.707Z,13.70
2023-02-19T10:50:59.948Z,13.70
2023-02-19T10:53:02.076Z,13.70
2023-02-19T10:55:16.043Z,13.70
2023-02-19T10:57:30.328Z,13.70
2023-02-19T10:59:32.017Z,13.70
2023-02-19T11:01:33.728Z,13.70
2023-02-19T11:03:35.427Z,13.70
2023-02-19T11:05:38.190Z,13.80
2023-02-19T11:07:44.160Z,13.80
2023-02-19T11:09:47.148Z,13.80
2023-02-19T11:11:51.083Z,13.80
2023-02-19T11:13:54.323Z,13.90
2023-02-19T11:15:56.262Z,13.90
2023-02-19T11:18:05.053Z,13.90
2023-02-19T11:20:14.377Z,13.90
2023-02-19T11:22:37.362Z,14.00
2023-02-19T11:24:40.576Z,14.00
2023-02-19T11:26:44.724Z,14.00
2023-02-19T11:28:55.028Z,14.00
2023-02-19T11:31:12.537Z,14.00
2023-02-19T11:33:17.667Z,14.00
2023-02-19T11:35:24.158Z,14.10
2023-02-19T11:37:25.852Z,14.10
2023-02-19T11:39:30.680Z,14.10
2023-02-19T11:41:38.327Z,14.10
2023-02-19T11:43:44.288Z,14.10
2023-02-19T11:45:57.570Z,14.20
2023-02-19T11:48:19.260Z,14.20
2023-02-19T11:50:32.943Z,14.20
2023-02-19T11:52:46.705Z,14.20
2023-02-19T11:55:00.313Z,14.30
2023-02-19T11:57:20.501Z,14.30
2023-02-19T11:59:31.303Z,14.30
2023-02-19T12:01:51.786Z,14.30
2023-02-19T12:03:53.492Z,14.30
2023-02-19T12:06:05.713Z,14.30
2023-02-19T12:08:16.718Z,14.30
2023-02-19T12:10:27.953Z,14.40
2023-02-19T12:12:29.605Z,14.40
2023-02-19T12:14:49.823Z,14.40
2023-02-19T12:16:54.367Z,14.40
2023-02-19T12:19:03.350Z,14.40
2023-02-19T12:21:14.258Z,14.40
2023-02-19T12:23:34.905Z,14.40
2023-02-19T12:25:36.673Z,14.50
2023-02-19T12:27:46.115Z,14.50
2023-02-19T12:29:56.781Z,14.40
2023-02-19T12:32:14.816Z,14.50
2023-02-19T12:34:19.356Z,14.50
2023-02-19T12:36:32.918Z,14.40
2023-02-19T12:38:45.296Z,14.50
2023-02-19T12:41:08.223Z,14.50
2023-02-19T12:43:18.810Z,14.40
2023-02-19T12:45:29.773Z,14.40
2023-02-19T12:47:35.073Z,14.40
2023-02-19T12:49:39.356Z,14.40
2023-02-19T12:51:55.162Z,14.50
2023-02-19T12:54:01.190Z,14.40
2023-02-19T12:56:05.378Z,14.40
2023-02-19T12:58:10.348Z,14.40
2023-02-19T13:00:27.519Z,14.40
2023-02-19T13:02:29.207Z,14.50
2023-02-19T13:04:47.445Z,14.40
2023-02-19T13:06:58.035Z,14.40
2023-02-19T13:09:06.951Z,14.50
2023-02-19T13:11:17.780Z,14.40
2023-02-19T13:13:23.879Z,14.40
2023-02-19T13:15:28.505Z,14.50
2023-02-19T13:17:47.825Z,14.50
2023-02-19T13:19:54.436Z,14.40
2023-02-19T13:22:23.394Z,14.50
2023-02-19T13:24:28.082Z,14.40
2023-02-19T13:26:30.167Z,14.50
2023-02-19T13:28:41.845Z,14.50
2023-02-19T13:30:59.997Z,14.50
2023-02-19T13:33:04.915Z,14.50
2023-02-19T13:35:25.143Z,14.50
2023-02-19T13:37:30.064Z,14.60
2023-02-19T13:39:34.526Z,14.60
2023-02-19T13:41:41.395Z,14.60
2023-02-19T13:43:43.421Z,14.60
2023-02-19T13:45:46.103Z,14.70
2023-02-19T13:47:53.883Z,14.70
2023-02-19T13:50:04.592Z,14.70
2023-02-19T13:52:24.961Z,14.70
2023-02-19T13:54:31.330Z,14.70
2023-02-19T13:56:33.976Z,14.70
2023-02-19T13:58:36.535Z,14.70
2023-02-19T14:00:56.630Z,14.70
2023-02-19T14:03:17.433Z,14.70
2023-02-19T14:05:39.108Z,14.70
2023-02-19T14:07:50.255Z,14.70
2023-02-19T14:09:52.460Z,14.70
2023-02-19T14:12:13.731Z,14.70
2023-02-19T14:14:22.881Z,14.80
2023-02-19T14:16:37.854Z,14.80
2023-02-19T14:18:46.596Z,14.80
2023-02-19T14:20:48.336Z,14.80
2023-02-19T14:22:58.516Z,14.80
2023-02-19T14:25:00.436Z,14.80
2023-02-19T14:27:02.739Z,14.80
2023-02-19T14:29:06.810Z,14.80
2023-02-19T14:31:11.923Z,14.80
2023-02-19T14:33:15.592Z,14.80
2023-02-19T14:35:30.817Z,14.80
2023-02-19T14:37:32.774Z,14.80
2023-02-19T14:39:37.838Z,14.80
2023-02-19T14:41:41.606Z,14.80
2023-02-19T14:43:44.540Z,14.80
2023-02-19T14:45:52.540Z,14.80
2023-02-19T14:47:56.384Z,14.80
2023-02-19T14:49:59.875Z,14.80
2023-02-19T14:52:04.386Z,14.80
2023-02-19T14:54:14.043Z,14.80
2023-02-19T14:56:23.144Z,14.80
2023-02-19T14:58:28.633Z,14.70
2023-02-19T15:00:33.477Z,14.70
2023-02-19T15:02:42.313Z,14.70
2023-02-19T15:04:44.797Z,14.80
2023-02-19T15:06:46.518Z,14.80
2023-02-19T15:08:49.371Z,14.80
2023-02-19T15:10:51.081Z,14.80
2023-02-19T15:12:54.834Z,14.80
2023-02-19T15:14:59.615Z,14.80
2023-02-19T15:17:03.218Z,14.80
2023-02-19T15:19:09.008Z,14.80
2023-02-19T15:21:15.056Z,14.80
2023-02-19T15:23:20.193Z,14.80
2023-02-19T15:25:23.507Z,14.80
2023-02-19T15:27:25.383Z,14.80
2023-02-19T15:29:27.646Z,14.80
2023-02-19T15:31:29.661Z,14.80
2023-02-19T15:33:31.431Z,14.80
2023-02-19T15:35:33.457Z,14.80
2023-02-19T15:37:35.502Z,14.90
2023-02-19T15:39:41.861Z,14.90
2023-02-19T15:41:44.688Z,14.90
2023-02-19T15:43:54.434Z,14.80
2023-02-19T15:45:58.964Z,14.90
2023-02-19T15:48:04.506Z,14.80
2023-02-19T15:50:12.342Z,14.80
2023-02-19T15:52:43.492Z,14.80
2023-02-19T15:54:52.068Z,14.80
2023-02-19T15:56:55.273Z,14.80
2023-02-19T15:59:02.486Z,14.80
2023-02-19T16:01:13.979Z,14.90
2023-02-19T16:03:22.820Z,14.80
2023-02-19T16:05:26.006Z,14.80
2023-02-19T16:07:29.060Z,14.80
2023-02-19T16:09:35.822Z,14.80
2023-02-19T16:11:37.902Z,14.80
2023-02-19T16:13:39.709Z,14.80
2023-02-19T16:15:41.551Z,14.80
2023-02-19T16:17:44.282Z,14.70
2023-02-19T16:19:56.801Z,14.80
2023-02-19T16:21:59.198Z,14.70
2023-02-19T16:24:06.488Z,14.70
2023-02-19T16:26:08.349Z,14.70
2023-02-19T16:28:14.637Z,14.70
2023-02-19T16:30:16.360Z,14.70
2023-02-19T16:32:18.392Z,14.70
2023-02-19T16:34:29.390Z,14.60
2023-02-19T16:36:39.219Z,14.60
2023-02-19T16:38:40.967Z,14.60
2023-02-19T16:40:48.837Z,14.60
2023-02-19T16:42:51.129Z,14.60
2023-02-19T16:44:52.907Z,14.50
2023-02-19T16:46:57.080Z,14.60
2023-02-19T16:48:58.883Z,14.60
2023-02-19T16:51:01.442Z,14.50
2023-02-19T16:53:04.027Z,14.60
2023-02-19T16:55:11.669Z,14.50
2023-02-19T16:57:13.450Z,14.50
2023-02-19T16:59:15.239Z,14.50
2023-02-19T17:01:17.606Z,14.50
2023-02-19T17:03:21.025Z,14.50
2023-02-19T17:05:23.504Z,14.50
2023-02-19T17:07:27.460Z,14.40
2023-02-19T17:09:29.393Z,14.40
2023-02-19T17:11:31.098Z,14.40
2023-02-19T17:13:32.817Z,14.40
2023-02-19T17:15:34.509Z,14.40
2023-02-19T17:17:36.170Z,14.40
2023-02-19T17:19:39.312Z,14.30
2023-02-19T17:21:41.185Z,14.30
2023-02-19T17:23:42.974Z,14.30
2023-02-19T17:25:44.776Z,14.30
2023-02-19T17:27:46.556Z,14.30
2023-02-19T17:29:48.327Z,14.30
2023-02-19T17:31:50.600Z,14.20
2023-02-19T17:33:52.748Z,14.30
2023-02-19T17:35:54.498Z,14.20
2023-02-19T17:37:56.374Z,14.20
2023-02-19T17:39:58.176Z,14.20
2023-02-19T17:41:59.970Z,14.20
2023-02-19T17:44:01.731Z,14.20
2023-02-19T17:46:04.068Z,14.20
2023-02-19T17:48:06.624Z,14.20
2023-02-19T17:50:18.683Z,14.20
2023-02-19T17:52:20.503Z,14.10
2023-02-19T17:54:22.231Z,14.10
2023-02-19T17:56:25.693Z,14.10
2023-02-19T17:58:27.487Z,14.10
2023-02-19T18:00:30.031Z,14.10
2023-02-19T18:02:31.845Z,14.10
2023-02-19T18:04:35.564Z,14.10
2023-02-19T18:06:38.368Z,14.10
2023-02-19T18:08:42.088Z,14.10
2023-02-19T18:10:43.849Z,14.10
2023-02-19T18:12:45.742Z,14.10
2023-02-19T18:14:47.874Z,14.10
2023-02-19T18:16:50.549Z,14.10
2023-02-19T18:18:55.406Z,14.10
2023-02-19T18:20:57.222Z,14.10
2023-02-19T18:22:58.939Z,14.10
2023-02-19T18:25:00.654Z,14.10
2023-02-19T18:27:02.470Z,14.10
2023-02-19T18:29:05.017Z,14.00
2023-02-19T18:31:09.453Z,14.00
2023-02-19T18:33:13.441Z,14.00
2023-02-19T18:35:16.727Z,14.00
2023-02-19T18:37:18.908Z,14.00
2023-02-19T18:39:20.759Z,14.00
2023-02-19T18:41:25.799Z,14.00
2023-02-19T18:43:30.023Z,14.00
2023-02-19T18:45:38.849Z,14.00
2023-02-19T18:47:47.593Z,14.00
2023-02-19T18:49:50.835Z,14.00
2023-02-19T18:51:55.760Z,14.00
2023-02-19T18:54:01.879Z,14.00
2023-02-19T18:56:09.242Z,14.00
2023-02-19T18:58:11.984Z,14.00
2023-02-19T19:00:17.448Z,14.00
2023-02-19T19:02:19.303Z,14.00
2023-02-19T19:04:21.275Z,14.00
2023-02-19T19:06:23.093Z,14.00
2023-02-19T19:08:24.867Z,14.00
2023-02-19T19:10:26.926Z,14.00
2023-02-19T19:12:28.740Z,14.00
2023-02-19T19:14:30.466Z,14.00
2023-02-19T19:16:32.208Z,14.00
2023-02-19T19:18:38.077Z,14.00
2023-02-19T19:20:39.790Z,14.00
2023-02-19T19:22:41.512Z,14.00
2023-02-19T19:24:43.306Z,13.90
2023-02-19T19:26:45.375Z,13.90
2023-02-19T19:28:49.572Z,13.90
2023-02-19T19:30:51.401Z,13.90
2023-02-19T19:32:53.933Z,13.90
2023-02-19T19:34:55.762Z,13.90
2023-02-19T19:36:57.584Z,13.90
2023-02-19T19:38:59.320Z,13.90
2023-02-19T19:41:01.316Z,13.90
2023-02-19T19:43:03.091Z,13.90
2023-02-19T19:45:07.397Z,13.90
2023-02-19T19:47:09.450Z,13.90
2023-02-19T19:49:11.453Z,13.90
2023-02-19T19:51:13.687Z,13.90
2023-02-19T19:53:15.753Z,13.80
2023-02-19T19:55:17.631Z,13.80
2023-02-19T19:57:19.407Z,13.80
2023-02-19T19:59:23.099Z,13.80
2023-02-19T20:01:24.941Z,13.80
2023-02-19T20:03:27.194Z,13.70
2023-02-19T20:05:29.064Z,13.70
2023-02-19T20:07:30.959Z,13.70
2023-02-19T20:09:32.888Z,13.70
2023-02-19T20:11:38.287Z,13.70
2023-02-19T20:13:40.449Z,13.70
2023-02-19T20:15:42.550Z,13.70
2023-02-19T20:17:44.242Z,13.70
2023-02-19T20:19:46.035Z,13.70
2023-02-19T20:21:49.342Z,13.70
2023-02-19T20:23:51.153Z,13.70
2023-02-19T20:25:52.910Z,13.70
2023-02-19T20:27:54.739Z,13.70
2023-02-19T20:29:56.655Z,13.70
2023-02-19T20:32:08.803Z,13.70
2023-02-19T20:34:12.473Z,13.70
2023-02-19T20:36:14.527Z,13.70
2023-02-19T20:38:16.766Z,13.70
2023-02-19T20:40:18.724Z,13.70
2023-02-19T20:42:20.536Z,13.70
2023-02-19T20:44:22.386Z,13.70
2023-02-19T20:46:24.236Z,13.70
2023-02-19T20:48:26.273Z,13.70
2023-02-19T20:50:28.290Z,13.60
2023-02-19T20:52:30.111Z,13.60
2023-02-19T20:54:32.698Z,13.60
2023-02-19T20:56:34.500Z,13.60
2023-02-19T20:58:36.271Z,13.60
2023-02-19T21:00:37.981Z,13.60
2023-02-19T21:02:39.739Z,13.60
2023-02-19T21:04:41.572Z,13.60
2023-02-19T21:06:45.813Z,13.60
2023-02-19T21:08:49.190Z,13.60
2023-02-19T21:10:50.991Z,13.60
2023-02-19T21:12:54.307Z,13.60
2023-02-19T21:14:56.079Z,13.60
2023-02-19T21:16:57.816Z,13.60
2023-02-19T21:18:59.613Z,13.60
2023-02-19T21:21:01.342Z,13.60
2023-02-19T21:23:03.400Z,13.60
2023-02-19T21:25:05.275Z,13.60
2023-02-19T21:27:07.061Z,13.60
2023-02-19T21:29:11.032Z,13.60
2023-02-19T21:31:12.887Z,13.60
2023-02-19T21:33:14.927Z,13.60
2023-02-19T21:35:16.750Z,13.60
2023-02-19T21:37:18.536Z,13.60
2023-02-19T21:39:21.692Z,13.60
2023-02-19T21:41:24.839Z,13.60
2023-02-19T21:43:28.426Z,13.60
2023-02-19T21:45:30.337Z,13.60
2023-02-19T21:47:32.108Z,13.60
2023-02-19T21:49:33.871Z,13.60
2023-02-19T21:51:37.168Z,13.60
2023-02-19T21:53:38.880Z,13.60
2023-02-19T21:55:42.906Z,13.60
2023-02-19T21:57:52.574Z,13.60
2023-02-19T21:59:54.470Z,13.60
2023-02-19T22:01:57.131Z,13.60
2023-02-19T22:03:58.997Z,13.60
2023-02-19T22:06:01.480Z,13.60
2023-02-19T22:08:03.301Z,13.60
2023-02-19T22:10:05.616Z,13.60
2023-02-19T22:12:07.544Z,13.50
2023-02-19T22:14:09.252Z,13.50
2023-02-19T22:16:11.577Z,13.60
2023-02-19T22:18:13.464Z,13.60
2023-02-19T22:20:17.197Z,13.50
2023-02-19T22:22:18.907Z,13.50
2023-02-19T22:24:21.360Z,13.50
2023-02-19T22:26:24.641Z,13.50
2023-02-19T22:28:26.371Z,13.50
2023-02-19T22:30:28.246Z,13.50
2023-02-19T22:32:30.079Z,13.50
2023-02-19T22:34:31.881Z,13.50
2023-02-19T22:36:34.174Z,13.50
2023-02-19T22:38:35.848Z,13.40
2023-02-19T22:40:37.520Z,13.50
2023-02-19T22:42:39.205Z,13.40
2023-02-19T22:44:42.857Z,13.40
2023-02-19T22:46:51.979Z,13.40
2023-02-19T22:48:53.731Z,13.40
2023-02-19T22:50:55.424Z,13.40
2023-02-19T22:52:57.106Z,13.40
2023-02-19T22:54:59.921Z,13.40
2023-02-19T22:57:01.658Z,13.40
2023-02-19T22:59:03.328Z,13.40
2023-02-19T23:01:05.205Z,13.40
2023-02-19T23:03:06.882Z,13.40
2023-02-19T23:05:08.630Z,13.40
2023-02-19T23:07:10.425Z,13.40
2023-02-19T23:09:16.487Z,13.40
2023-02-19T23:11:22.029Z,13.40
2023-02-19T23:13:23.708Z,13.40
2023-02-19T23:15:25.360Z,13.40
2023-02-19T23:17:27.049Z,13.40
2023-02-19T23:19:28.747Z,13.40
2023-02-19T23:21:31.048Z,13.40
2023-02-19T23:23:32.756Z,13.40
2023-02-19T23:25:34.484Z,13.40
2023-02-19T23:27:36.120Z,13.40
2023-02-19T23:29:37.838Z,13.30
2023-02-19T23:31:39.600Z,13.30
2023-02-19T23:33:41.445Z,13.30
2023-02-19T23:35:43.106Z,13.30
2023-02-19T23:37:44.731Z,13.30
2023-02-19T23:39:46.381Z,13.30
2023-02-19T23:41:52.150Z,13.30
2023-02-19T23:43:54.178Z,13.30
2023-02-19T23:45:55.899Z,13.30
2023-02-19T23:47:57.577Z,13.30
2023-02-19T23:49:59.185Z,13.30
2023-02-19T23:52:00.810Z,13.30
2023-02-19T23:54:02.506Z,13.30
2023-02-19T23:56:04.442Z,13.30
2023-02-19T23:58:06.077Z,13.30
